Time;durP1;ratioP1;P1;durP2;ratioP2;P2;SDS_P1;SDS_P2;PMS_P1;PMS_P2;Temp;Humidity;BMP_temperature;BMP_pressure;BME280_temperature;BME280_humidity;BME280_pressure;Samples;Min_cycle;Max_cycle;Signal;HPM_P1;HPM_P2
2021/10/26 00:00:22;;;;;;;36.88;20.33;;;12.80;99.90;;;;;;5077919;28;20030;-75
2021/10/26 00:02:47;;;;;;;34.22;21.58;;;12.90;99.90;;;;;;5061796;28;20062;-76
2021/10/26 00:05:13;;;;;;;37.45;21.67;;;12.90;99.90;;;;;;5079991;28;20040;-75
2021/10/26 00:07:39;;;;;;;39.00;22.30;;;12.90;99.90;;;;;;5083035;28;20483;-75
2021/10/26 00:10:06;;;;;;;26.73;17.08;;;12.90;99.90;;;;;;5080318;28;20062;-75
2021/10/26 00:12:33;;;;;;;38.15;21.70;;;12.90;99.90;;;;;;5066588;28;20042;-75
2021/10/26 00:14:58;;;;;;;36.80;22.40;;;13.00;99.90;;;;;;5082475;28;20993;-75
2021/10/26 00:17:25;;;;;;;34.47;20.48;;;12.90;99.90;;;;;;5077855;28;20020;-75
2021/10/26 00:19:51;;;;;;;36.20;21.67;;;12.90;99.90;;;;;;5081123;28;20519;-75
2021/10/26 00:22:17;;;;;;;38.13;22.70;;;13.00;99.90;;;;;;5079748;28;20052;-75
2021/10/26 00:24:43;;;;;;;38.53;21.95;;;12.90;99.90;;;;;;5077553;28;20067;-75
2021/10/26 00:27:09;;;;;;;35.00;20.30;;;12.90;99.90;;;;;;5085069;28;20016;-75
2021/10/26 00:29:35;;;;;;;44.05;23.58;;;12.90;99.90;;;;;;5078970;28;20031;-75
2021/10/26 00:32:01;;;;;;;37.17;21.58;;;12.90;99.90;;;;;;5078828;28;20032;-75
2021/10/26 00:34:27;;;;;;;39.67;24.10;;;12.90;99.90;;;;;;5065968;28;20033;-75
2021/10/26 00:36:53;;;;;;;145.85;116.03;;;12.90;99.90;;;;;;5084409;28;20040;-74
2021/10/26 00:39:18;;;;;;;42.63;27.38;;;12.90;99.90;;;;;;5083176;28;20016;-75
2021/10/26 00:41:45;;;;;;;42.53;24.33;;;12.90;99.90;;;;;;5081256;28;20032;-75
2021/10/26 00:44:12;;;;;;;36.10;22.70;;;12.90;99.90;;;;;;5083805;28;20503;-75
2021/10/26 00:46:38;;;;;;;42.47;23.98;;;12.90;99.90;;;;;;5083585;28;20031;-75
2021/10/26 00:49:09;;;;;;;36.38;21.27;;;12.80;99.90;;;;;;5078569;28;20036;-75
2021/10/26 00:51:36;;;;;;;42.10;23.00;;;12.90;99.90;;;;;;5063663;28;20020;-74
2021/10/26 00:54:04;;;;;;;43.60;23.25;;;13.00;99.90;;;;;;5082429;28;20048;-75
2021/10/26 00:56:30;;;;;;;34.55;21.92;;;13.00;99.90;;;;;;5082141;28;20028;-75
2021/10/26 00:58:57;;;;;;;37.17;21.60;;;13.00;99.90;;;;;;5083364;28;20036;-75
2021/10/26 01:01:23;;;;;;;40.00;24.38;;;13.00;99.90;;;;;;5077753;28;20013;-75
2021/10/26 01:03:49;;;;;;;39.05;21.75;;;13.00;99.90;;;;;;5081016;28;20062;-75
2021/10/26 01:06:15;;;;;;;39.67;21.95;;;13.10;99.90;;;;;;5061728;28;20035;-76
2021/10/26 01:08:41;;;;;;;42.38;23.38;;;13.10;99.90;;;;;;5079611;28;20032;-75
2021/10/26 01:11:07;;;;;;;43.72;22.55;;;13.10;99.90;;;;;;5078334;28;20017;-75
2021/10/26 01:13:33;;;;;;;42.92;25.08;;;13.00;99.90;;;;;;5085902;28;20034;-75
2021/10/26 01:15:59;;;;;;;36.15;23.65;;;13.00;99.90;;;;;;5079414;28;20028;-74
2021/10/26 01:18:25;;;;;;;40.80;22.10;;;13.00;99.90;;;;;;5077390;28;20032;-75
2021/10/26 01:20:53;;;;;;;39.78;22.75;;;13.00;99.90;;;;;;5061989;28;20117;-75
2021/10/26 01:23:19;;;;;;;34.22;20.90;;;12.90;99.90;;;;;;5081829;28;20055;-75
2021/10/26 01:25:45;;;;;;;41.42;23.20;;;13.00;99.90;;;;;;5084524;28;20020;-75
2021/10/26 01:28:12;;;;;;;40.78;21.92;;;13.00;99.90;;;;;;5085064;28;20028;-75
2021/10/26 01:30:38;;;;;;;36.10;21.35;;;13.10;99.90;;;;;;5087071;28;20029;-75
2021/10/26 01:33:05;;;;;;;33.85;20.67;;;13.10;99.90;;;;;;5085993;28;20013;-75
2021/10/26 01:35:32;;;;;;;32.05;20.40;;;13.10;99.90;;;;;;5083122;28;20028;-75
2021/10/26 01:37:59;;;;;;;42.00;20.38;;;13.00;99.90;;;;;;5080544;28;20028;-74
2021/10/26 01:40:24;;;;;;;40.55;22.27;;;13.10;99.90;;;;;;5084673;28;20093;-75
2021/10/26 01:42:51;;;;;;;37.90;21.17;;;13.10;99.90;;;;;;5078021;28;20464;-75
2021/10/26 01:45:17;;;;;;;38.08;19.75;;;13.10;99.90;;;;;;5078942;28;20032;-75
2021/10/26 01:47:43;;;;;;;36.90;21.80;;;13.10;99.90;;;;;;5066484;28;20074;-75
2021/10/26 01:50:11;;;;;;;41.15;22.05;;;13.10;99.90;;;;;;5085511;28;20025;-75
2021/10/26 01:52:37;;;;;;;45.08;22.30;;;13.00;99.90;;;;;;5069117;28;20032;-74
2021/10/26 01:55:04;;;;;;;45.60;22.40;;;13.00;99.90;;;;;;5085429;28;20052;-75
2021/10/26 01:57:30;;;;;;;45.88;23.02;;;13.00;99.90;;;;;;5081070;28;21771;-75
2021/10/26 01:59:57;;;;;;;48.55;24.00;;;13.00;99.90;;;;;;5082570;28;20128;-76
2021/10/26 02:02:25;;;;;;;37.97;20.30;;;13.00;99.90;;;;;;5083220;28;20013;-75
2021/10/26 02:04:54;;;;;;;37.53;23.02;;;12.90;99.90;;;;;;5086323;28;20027;-75
2021/10/26 02:07:19;;;;;;;39.83;21.05;;;12.90;99.90;;;;;;5088310;28;20024;-75
2021/10/26 02:09:45;;;;;;;46.13;23.85;;;12.90;99.90;;;;;;5079538;28;20055;-75
2021/10/26 02:12:11;;;;;;;45.92;23.05;;;12.80;99.90;;;;;;5057987;28;20116;-75
2021/10/26 02:14:37;;;;;;;43.70;23.35;;;12.80;99.90;;;;;;5084579;28;20434;-74
2021/10/26 02:17:04;;;;;;;45.05;24.48;;;12.80;99.90;;;;;;5087266;28;20460;-75
2021/10/26 02:19:30;;;;;;;41.92;23.30;;;12.80;99.90;;;;;;5080837;28;20021;-75
2021/10/26 02:21:56;;;;;;;45.42;24.38;;;12.80;99.90;;;;;;5081857;28;20040;-75
2021/10/26 02:24:22;;;;;;;47.30;25.23;;;12.80;99.90;;;;;;5083726;28;20063;-75
2021/10/26 02:26:49;;;;;;;49.97;23.23;;;12.80;99.90;;;;;;5082865;28;20032;-75
2021/10/26 02:29:15;;;;;;;50.75;23.60;;;12.80;99.90;;;;;;5081852;28;20016;-75
2021/10/26 02:31:40;;;;;;;51.78;23.33;;;12.80;99.90;;;;;;5081639;28;20032;-75
2021/10/26 02:34:06;;;;;;;50.92;23.75;;;12.80;99.90;;;;;;5083021;28;20035;-75
2021/10/26 02:36:33;;;;;;;39.97;22.77;;;12.80;99.90;;;;;;5080843;28;20695;-76
2021/10/26 02:38:59;;;;;;;44.03;22.33;;;12.80;99.90;;;;;;5080736;28;20028;-75
2021/10/26 02:41:24;;;;;;;45.95;24.20;;;12.80;99.90;;;;;;5080131;28;20021;-75
2021/10/26 02:43:50;;;;;;;43.22;25.70;;;12.80;99.90;;;;;;5081776;28;20043;-75
2021/10/26 02:46:16;;;;;;;49.13;23.73;;;12.70;99.90;;;;;;5083081;28;20031;-75
2021/10/26 02:48:42;;;;;;;46.33;23.80;;;12.70;99.90;;;;;;5063917;28;20452;-75
2021/10/26 02:51:09;;;;;;;45.72;22.40;;;12.70;99.90;;;;;;5080783;28;20437;-75
2021/10/26 02:53:35;;;;;;;41.88;22.90;;;12.70;99.90;;;;;;5088631;28;20154;-75
2021/10/26 02:56:00;;;;;;;47.35;22.50;;;12.70;99.90;;;;;;5084252;28;20103;-74
2021/10/26 02:58:26;;;;;;;51.35;24.50;;;12.70;99.90;;;;;;5080513;28;20020;-75
2021/10/26 03:00:52;;;;;;;49.78;25.65;;;12.70;99.90;;;;;;5084842;28;20495;-75
2021/10/26 03:03:17;;;;;;;42.72;22.77;;;12.60;99.90;;;;;;5088691;28;20593;-75
2021/10/26 03:05:43;;;;;;;42.60;21.02;;;12.70;99.90;;;;;;5086796;28;20499;-74
2021/10/26 03:08:10;;;;;;;54.00;26.20;;;12.60;99.90;;;;;;5084554;28;20487;-74
2021/10/26 03:10:36;;;;;;;49.30;24.42;;;12.70;99.90;;;;;;5081405;28;20119;-75
2021/10/26 03:13:02;;;;;;;51.63;25.05;;;12.60;99.90;;;;;;5066114;28;20493;-74
2021/10/26 03:15:28;;;;;;;45.63;23.90;;;12.60;99.90;;;;;;5079346;28;20020;-74
2021/10/26 03:17:54;;;;;;;41.95;22.10;;;12.60;99.90;;;;;;5078886;28;20046;-75
2021/10/26 03:20:20;;;;;;;44.90;23.30;;;12.60;99.90;;;;;;5084319;28;20468;-75
2021/10/26 03:22:45;;;;;;;54.63;26.27;;;12.50;99.90;;;;;;5083592;28;20056;-75
2021/10/26 03:25:11;;;;;;;46.53;23.40;;;12.50;99.90;;;;;;5087921;28;20055;-74
2021/10/26 03:27:37;;;;;;;49.90;24.02;;;12.50;99.90;;;;;;5077167;28;20555;-74
2021/10/26 03:30:04;;;;;;;51.03;24.20;;;12.50;99.90;;;;;;5078618;28;20028;-74
2021/10/26 03:32:30;;;;;;;47.80;24.48;;;12.50;99.90;;;;;;5080597;28;20107;-74
2021/10/26 03:34:55;;;;;;;51.65;25.75;;;12.40;99.90;;;;;;5086106;28;20111;-74
2021/10/26 03:37:21;;;;;;;56.03;26.23;;;12.40;99.90;;;;;;5082263;28;20028;-74
2021/10/26 03:39:53;;;;;;;50.40;25.42;;;12.40;99.90;;;;;;5080245;28;20590;-74
2021/10/26 03:42:20;;;;;;;60.80;26.73;;;12.50;99.90;;;;;;5082018;28;20028;-74
2021/10/26 03:44:46;;;;;;;58.45;26.08;;;12.40;99.90;;;;;;5083642;28;20077;-74
2021/10/26 03:47:12;;;;;;;52.08;25.55;;;12.40;99.90;;;;;;5083173;28;20105;-73
2021/10/26 03:49:38;;;;;;;58.53;26.05;;;12.40;99.90;;;;;;5083929;28;20062;-74
2021/10/26 03:52:04;;;;;;;49.70;25.83;;;12.40;99.90;;;;;;5081634;28;20036;-75
2021/10/26 03:54:29;;;;;;;54.03;25.60;;;12.40;99.90;;;;;;5078245;28;20486;-75
2021/10/26 03:56:55;;;;;;;49.75;24.13;;;12.40;99.90;;;;;;5077159;28;21020;-76
2021/10/26 03:59:22;;;;;;;46.95;24.63;;;12.40;99.90;;;;;;5082346;28;20459;-75
2021/10/26 04:01:49;;;;;;;54.30;25.30;;;12.40;99.90;;;;;;5077153;28;20028;-74
2021/10/26 04:04:14;;;;;;;48.42;24.13;;;12.40;99.90;;;;;;5070210;28;20032;-74
2021/10/26 04:06:43;;;;;;;64.22;27.48;;;12.40;99.90;;;;;;5083484;28;20099;-73
2021/10/26 04:09:11;;;;;;;44.85;23.05;;;12.40;99.90;;;;;;5082820;28;20024;-74
2021/10/26 04:11:51;;;;;;;59.35;28.00;;;12.50;99.90;;;;;;5083335;28;20024;-74
2021/10/26 04:14:17;;;;;;;56.47;27.38;;;12.50;99.90;;;;;;5064993;28;20042;-74
2021/10/26 04:16:43;;;;;;;48.40;24.67;;;12.40;99.90;;;;;;5077699;28;20468;-74
2021/10/26 04:19:10;;;;;;;55.05;25.85;;;12.50;99.90;;;;;;5067822;28;20032;-74
2021/10/26 04:21:36;;;;;;;55.95;26.88;;;12.40;99.90;;;;;;5085642;28;20032;-74
2021/10/26 04:24:02;;;;;;;74.78;44.08;;;12.40;99.90;;;;;;5082533;28;20109;-74
2021/10/26 04:26:28;;;;;;;58.38;28.17;;;12.50;99.90;;;;;;5079786;28;20031;-74
2021/10/26 04:28:53;;;;;;;54.90;25.38;;;12.50;99.90;;;;;;5064490;28;20032;-74
2021/10/26 04:31:19;;;;;;;49.33;24.38;;;12.50;99.90;;;;;;5084672;28;20054;-74
2021/10/26 04:33:45;;;;;;;45.88;22.35;;;12.50;99.90;;;;;;5087498;28;20512;-74
2021/10/26 04:36:11;;;;;;;54.00;25.23;;;12.50;99.90;;;;;;5084596;28;20035;-74
2021/10/26 04:38:37;;;;;;;53.35;25.17;;;12.50;99.90;;;;;;5085256;28;20020;-74
2021/10/26 04:41:07;;;;;;;59.00;23.88;;;12.50;99.90;;;;;;5080993;28;20074;-74
2021/10/26 04:43:34;;;;;;;56.47;26.52;;;12.50;99.90;;;;;;5074622;28;20062;-74
2021/10/26 04:46:00;;;;;;;44.60;23.00;;;12.50;99.90;;;;;;5083002;28;20027;-74
2021/10/26 04:48:25;;;;;;;51.83;25.05;;;12.50;99.90;;;;;;5081308;28;20031;-75
2021/10/26 04:50:51;;;;;;;62.85;26.50;;;12.60;99.90;;;;;;5064378;28;20021;-75
2021/10/26 04:53:17;;;;;;;58.78;25.58;;;12.50;99.90;;;;;;5081401;28;20035;-75
2021/10/26 04:55:43;;;;;;;53.35;25.45;;;12.50;99.90;;;;;;5080077;28;20075;-75
2021/10/26 04:58:08;;;;;;;57.60;26.33;;;12.60;99.90;;;;;;5089567;28;20384;-74
2021/10/26 05:00:34;;;;;;;55.95;24.42;;;12.60;99.90;;;;;;5069433;28;20066;-75
2021/10/26 05:03:00;;;;;;;46.78;23.40;;;12.50;99.90;;;;;;5082240;28;20033;-75
2021/10/26 05:05:25;;;;;;;50.45;24.92;;;12.50;99.90;;;;;;5087649;28;20043;-75
2021/10/26 05:07:51;;;;;;;57.50;25.27;;;12.50;99.90;;;;;;5085999;28;20152;-74
2021/10/26 05:10:17;;;;;;;46.55;23.25;;;12.50;99.90;;;;;;5085922;28;20040;-74
2021/10/26 05:12:43;;;;;;;53.13;25.58;;;12.50;99.90;;;;;;5092070;28;20059;-74
2021/10/26 05:15:09;;;;;;;52.38;25.75;;;12.40;99.90;;;;;;5092427;28;20446;-74
2021/10/26 05:17:36;;;;;;;51.88;24.40;;;12.30;99.90;;;;;;5087778;28;20035;-74
2021/10/26 05:20:04;;;;;;;53.67;24.52;;;12.40;99.90;;;;;;5086638;28;20085;-74
2021/10/26 05:22:30;;;;;;;59.72;26.10;;;12.30;99.90;;;;;;5080710;28;20035;-74
2021/10/26 05:24:56;;;;;;;53.35;24.58;;;12.30;99.90;;;;;;5086841;28;20040;-74
2021/10/26 05:27:21;;;;;;;58.15;25.25;;;12.30;99.90;;;;;;5089727;28;20024;-75
2021/10/26 05:29:48;;;;;;;57.38;27.55;;;12.30;99.90;;;;;;5080996;28;20024;-74
2021/10/26 05:32:14;;;;;;;50.47;23.13;;;12.30;99.90;;;;;;5081030;28;20016;-74
2021/10/26 05:34:42;;;;;;;68.30;28.08;;;12.30;99.90;;;;;;5078359;28;20063;-74
2021/10/26 05:37:10;;;;;;;65.47;27.38;;;12.30;99.90;;;;;;5085992;28;20027;-74
2021/10/26 05:39:38;;;;;;;61.33;27.35;;;12.30;99.90;;;;;;5087244;28;20384;-74
2021/10/26 05:42:04;;;;;;;56.10;27.02;;;12.30;99.90;;;;;;5089489;28;20471;-75
2021/10/26 05:44:30;;;;;;;50.63;24.85;;;12.30;99.90;;;;;;5087450;28;20082;-74
2021/10/26 05:46:55;;;;;;;55.92;25.25;;;12.30;99.90;;;;;;5089392;28;20024;-74
2021/10/26 05:49:21;;;;;;;57.47;25.75;;;12.20;99.90;;;;;;5089509;28;20028;-74
2021/10/26 05:51:47;;;;;;;61.20;25.80;;;12.30;99.90;;;;;;5090738;28;20016;-74
2021/10/26 05:54:13;;;;;;;52.75;27.05;;;12.30;99.90;;;;;;5084377;28;20480;-75
2021/10/26 05:56:38;;;;;;;57.97;25.48;;;12.30;99.90;;;;;;5079489;28;20024;-74
2021/10/26 05:59:04;;;;;;;63.83;25.98;;;12.20;99.90;;;;;;5082467;28;20502;-74
2021/10/26 06:01:30;;;;;;;54.13;25.63;;;12.20;99.90;;;;;;5090704;28;20040;-74
2021/10/26 06:03:55;;;;;;;60.05;26.10;;;12.30;99.90;;;;;;5084599;28;20127;-74
2021/10/26 06:06:21;;;;;;;57.10;26.30;;;12.30;99.90;;;;;;5084058;28;20164;-74
2021/10/26 06:08:49;;;;;;;61.20;27.55;;;12.30;99.90;;;;;;5088033;28;20119;-74
2021/10/26 06:11:19;;;;;;;53.67;25.73;;;12.30;99.90;;;;;;5081088;28;20031;-76
2021/10/26 06:13:48;;;;;;;56.70;27.17;;;12.30;99.90;;;;;;5083140;28;20016;-75
2021/10/26 06:16:14;;;;;;;58.55;26.90;;;12.20;99.90;;;;;;5085549;28;20078;-75
2021/10/26 06:18:40;;;;;;;47.88;23.75;;;12.10;99.90;;;;;;5083337;28;20075;-75
2021/10/26 06:21:05;;;;;;;75.47;30.95;;;12.20;99.90;;;;;;5081670;28;20043;-75
2021/10/26 06:23:31;;;;;;;63.90;26.70;;;12.20;99.90;;;;;;5079321;28;20043;-74
2021/10/26 06:25:59;;;;;;;58.20;26.33;;;12.20;99.90;;;;;;5080632;28;20043;-74
2021/10/26 06:28:26;;;;;;;50.35;26.45;;;12.30;99.90;;;;;;5087492;28;20095;-74
2021/10/26 06:30:51;;;;;;;58.83;25.33;;;12.30;99.90;;;;;;5076418;28;20034;-74
2021/10/26 06:33:17;;;;;;;54.83;27.70;;;12.30;99.90;;;;;;5081896;28;20103;-74
2021/10/26 06:35:43;;;;;;;56.90;26.95;;;12.20;99.90;;;;;;5081043;28;20115;-73
2021/10/26 06:38:09;;;;;;;56.38;26.42;;;12.20;99.90;;;;;;5079509;28;20040;-74
2021/10/26 06:40:35;;;;;;;61.15;28.17;;;12.20;99.90;;;;;;5088065;28;20093;-73
2021/10/26 06:43:01;;;;;;;56.53;26.17;;;12.20;99.90;;;;;;5083440;28;20024;-74
2021/10/26 06:45:27;;;;;;;53.85;24.13;;;12.30;99.90;;;;;;5070318;28;20384;-74
2021/10/26 06:47:53;;;;;;;64.28;26.83;;;12.30;99.90;;;;;;5075055;28;20028;-74
2021/10/26 06:50:19;;;;;;;56.58;26.48;;;12.20;99.90;;;;;;5081207;28;20024;-74
2021/10/26 06:52:45;;;;;;;57.22;26.25;;;12.20;99.90;;;;;;5080685;28;20023;-74
2021/10/26 06:55:16;;;;;;;60.25;28.02;;;12.20;99.90;;;;;;5082391;28;20024;-74
2021/10/26 06:57:45;;;;;;;47.40;22.40;;;12.20;99.90;;;;;;5072440;28;20107;-76
2021/10/26 07:00:11;;;;;;;56.58;25.58;;;12.20;99.90;;;;;;5081240;28;20025;-74
2021/10/26 07:02:52;;;;;;;54.42;27.05;;;12.20;99.90;;;;;;5080738;28;20008;-75
2021/10/26 07:05:19;;;;;;;64.35;26.45;;;12.20;99.90;;;;;;5080942;28;20036;-78
2021/10/26 07:07:45;;;;;;;54.92;26.05;;;12.20;99.90;;;;;;5084765;28;20036;-74
2021/10/26 07:10:12;;;;;;;51.03;26.67;;;12.20;99.90;;;;;;5073422;28;20081;-74
2021/10/26 07:12:39;;;;;;;57.83;28.23;;;12.20;99.90;;;;;;5072575;28;20024;-74
2021/10/26 07:15:09;;;;;;;62.95;31.55;;;12.30;99.90;;;;;;5072544;28;20499;-74
2021/10/26 07:17:35;;;;;;;66.93;30.33;;;12.30;99.90;;;;;;5077306;28;20028;-73
2021/10/26 07:20:05;;;;;;;71.85;29.10;;;12.30;99.90;;;;;;5073651;28;20027;-73
2021/10/26 07:22:31;;;;;;;64.30;29.55;;;12.30;99.90;;;;;;5078294;28;20056;-73
2021/10/26 07:24:57;;;;;;;55.40;28.52;;;12.20;99.90;;;;;;5078568;28;20519;-73
2021/10/26 07:27:24;;;;;;;55.92;26.55;;;12.20;99.90;;;;;;5076040;28;20366;-78
2021/10/26 07:29:50;;;;;;;63.35;29.65;;;12.20;99.90;;;;;;5078210;28;20051;-77
2021/10/26 07:32:15;;;;;;;71.53;30.75;;;12.20;99.90;;;;;;5065012;28;20078;-76
2021/10/26 07:34:41;;;;;;;72.10;30.23;;;12.10;99.90;;;;;;5074583;28;20527;-77
2021/10/26 07:37:07;;;;;;;65.15;30.00;;;12.20;99.90;;;;;;5075934;28;20059;-78
2021/10/26 07:39:35;;;;;;;71.43;29.10;;;12.30;99.90;;;;;;5090377;28;20095;-77
2021/10/26 07:42:02;;;;;;;66.03;31.23;;;12.30;99.90;;;;;;5087397;28;20111;-77
2021/10/26 07:44:32;;;;;;;82.20;34.35;;;12.40;99.90;;;;;;5081788;28;20116;-77
2021/10/26 07:47:00;;;;;;;70.28;28.02;;;12.40;99.90;;;;;;5065322;28;20029;-76
2021/10/26 07:49:30;;;;;;;71.07;30.42;;;12.40;99.90;;;;;;5086376;28;20099;-76
2021/10/26 07:51:57;;;;;;;70.35;31.17;;;12.30;99.90;;;;;;5075150;28;20111;-77
2021/10/26 07:54:23;;;;;;;71.68;28.70;;;12.40;99.90;;;;;;5080964;28;20031;-74
2021/10/26 07:56:49;;;;;;;63.60;28.15;;;12.40;99.90;;;;;;5065605;28;20012;-76
2021/10/26 07:59:15;;;;;;;66.10;29.25;;;12.50;99.90;;;;;;5078765;28;20055;-77
2021/10/26 08:01:44;;;;;;;76.10;30.10;;;12.40;99.90;;;;;;5072824;28;20044;-77
2021/10/26 08:04:10;;;;;;;64.93;28.60;;;12.40;99.90;;;;;;5082556;28;20472;-77
2021/10/26 08:06:36;;;;;;;63.40;27.92;;;12.50;99.90;;;;;;5084482;28;20073;-75
2021/10/26 08:09:02;;;;;;;67.43;31.05;;;12.50;99.90;;;;;;5089999;28;20024;-73
2021/10/26 08:11:29;;;;;;;64.07;28.13;;;12.60;99.90;;;;;;5083063;28;20024;-75
2021/10/26 08:13:55;;;;;;;70.32;29.00;;;12.60;99.90;;;;;;5088183;28;20673;-73
2021/10/26 08:16:21;;;;;;;60.03;26.30;;;12.60;99.90;;;;;;5081054;28;20420;-76
2021/10/26 08:18:49;;;;;;;60.75;26.42;;;12.60;99.90;;;;;;5082591;28;20016;-75
2021/10/26 08:21:14;;;;;;;61.72;26.90;;;12.70;99.90;;;;;;5081386;28;20027;-75
2021/10/26 08:23:41;;;;;;;56.10;25.38;;;12.70;99.90;;;;;;5062088;28;20035;-74
2021/10/26 08:26:13;;;;;;;57.40;25.15;;;12.80;99.90;;;;;;5083207;28;20016;-74
2021/10/26 08:28:38;;;;;;;54.40;23.08;;;12.90;99.90;;;;;;5082010;28;20043;-74
2021/10/26 08:31:18;;;;;;;55.67;24.05;;;12.80;99.90;;;;;;5075805;28;20020;-71
2021/10/26 08:36:28;;;;;;;54.55;23.48;;;12.90;99.90;;;;;;5081488;28;20795;-74
2021/10/26 08:38:54;;;;;;;49.47;26.17;;;13.00;99.90;;;;;;5085492;28;20036;-74
2021/10/26 08:41:23;;;;;;;47.90;23.17;;;13.00;99.90;;;;;;5085058;28;20494;-74
2021/10/26 08:43:50;;;;;;;47.45;23.73;;;13.00;99.90;;;;;;5082092;28;20469;-74
2021/10/26 08:46:16;;;;;;;48.95;23.30;;;13.10;99.90;;;;;;5081543;28;20496;-73
2021/10/26 08:48:45;;;;;;;49.20;22.20;;;13.10;99.90;;;;;;5080056;28;20115;-75
2021/10/26 08:51:11;;;;;;;47.42;24.10;;;13.10;99.90;;;;;;5084142;28;20540;-73
2021/10/26 08:53:38;;;;;;;47.33;22.10;;;13.10;99.90;;;;;;5081357;28;20133;-73
2021/10/26 08:56:04;;;;;;;49.83;23.65;;;13.20;99.90;;;;;;5079366;28;20039;-74
2021/10/26 08:58:33;;;;;;;42.47;23.55;;;13.30;99.90;;;;;;5077905;28;20487;-73
2021/10/26 09:01:00;;;;;;;41.30;21.50;;;13.20;99.90;;;;;;5076300;28;20177;-74
2021/10/26 09:03:35;;;;;;;45.72;22.15;;;13.20;99.90;;;;;;5078789;28;20025;-74
2021/10/26 09:06:03;;;;;;;41.80;19.65;;;13.30;99.90;;;;;;5062741;28;20127;-75
2021/10/26 09:08:29;;;;;;;42.22;20.85;;;13.30;99.90;;;;;;5078098;28;20024;-75
2021/10/26 09:11:00;;;;;;;42.40;23.58;;;13.40;99.90;;;;;;5080579;28;20021;-75
2021/10/26 09:19:18;;;;;;;40.05;20.88;;;13.60;99.90;;;;;;5079411;28;20083;-75
2021/10/26 09:21:55;;;;;;;41.20;19.50;;;13.70;99.90;;;;;;5076995;28;20029;-82
2021/10/26 09:24:21;;;;;;;35.33;18.83;;;13.80;99.90;;;;;;5078878;28;20035;-81
2021/10/26 09:26:53;;;;;;;33.03;17.50;;;13.60;99.90;;;;;;5076492;28;20031;-81
2021/10/26 09:29:39;;;;;;;38.13;18.10;;;13.60;99.90;;;;;;5079281;28;20060;-81
2021/10/26 09:32:12;;;;;;;30.15;16.80;;;13.60;99.90;;;;;;5079951;28;20104;-82
2021/10/26 09:34:47;;;;;;;28.38;14.70;;;13.70;99.90;;;;;;5080239;28;20085;-76
2021/10/26 09:37:15;;;;;;;27.33;15.50;;;13.70;99.90;;;;;;5064142;28;20020;-81
2021/10/26 09:39:58;;;;;;;29.20;15.95;;;13.80;99.90;;;;;;5079295;28;20059;-80
2021/10/26 09:42:24;;;;;;;29.08;14.68;;;13.90;99.90;;;;;;5080251;28;20029;-81
2021/10/26 09:44:56;;;;;;;28.65;14.02;;;13.90;99.90;;;;;;5082603;28;20581;-81
2021/10/26 09:47:26;;;;;;;29.08;13.95;;;13.90;99.90;;;;;;5086185;28;20027;-77
2021/10/26 09:49:58;;;;;;;29.92;13.20;;;14.00;99.90;;;;;;5086513;28;20028;-76
2021/10/26 09:52:36;;;;;;;24.33;12.75;;;14.10;99.90;;;;;;5083087;28;20070;-78
2021/10/26 09:55:17;;;;;;;24.95;11.43;;;14.10;99.90;;;;;;5086193;28;20055;-79
2021/10/26 09:57:53;;;;;;;26.50;10.73;;;14.10;99.90;;;;;;5081052;28;20016;-80
2021/10/26 10:00:30;;;;;;;24.45;11.02;;;14.10;99.90;;;;;;5083513;28;20103;-81
2021/10/26 10:03:04;;;;;;;24.00;10.98;;;14.00;99.90;;;;;;5080370;28;20032;-77
2021/10/26 10:05:34;;;;;;;23.15;11.18;;;14.10;99.90;;;;;;5083937;28;20028;-77
2021/10/26 10:08:20;;;;;;;24.13;10.77;;;14.20;99.90;;;;;;5079403;28;20027;-78
2021/10/26 10:10:47;;;;;;;20.65;10.13;;;14.20;99.90;;;;;;5085256;28;20099;-77
2021/10/26 10:13:13;;;;;;;25.40;10.18;;;14.20;99.90;;;;;;5085774;28;20024;-77
2021/10/26 10:15:43;;;;;;;19.50;10.82;;;14.20;99.90;;;;;;5082414;28;20036;-78
2021/10/26 10:18:14;;;;;;;19.35;9.20;;;14.30;99.90;;;;;;5085200;28;20016;-77
2021/10/26 10:20:40;;;;;;;17.00;9.93;;;14.30;99.90;;;;;;5086041;28;20024;-78
2021/10/26 10:23:06;;;;;;;21.33;9.10;;;14.30;99.90;;;;;;5083467;28;20035;-77
2021/10/26 10:25:33;;;;;;;20.75;10.07;;;14.40;99.90;;;;;;5086418;28;20035;-79
2021/10/26 10:28:02;;;;;;;20.42;10.15;;;14.40;99.90;;;;;;5083521;28;20063;-78
2021/10/26 10:30:28;;;;;;;21.77;10.18;;;14.50;99.90;;;;;;5083203;28;20028;-77
2021/10/26 10:32:53;;;;;;;19.33;9.30;;;14.50;99.90;;;;;;5079715;28;20078;-77
2021/10/26 10:35:20;;;;;;;20.63;9.82;;;14.50;99.90;;;;;;5080548;28;20021;-77
2021/10/26 10:37:51;;;;;;;21.05;8.98;;;14.50;99.90;;;;;;5079844;28;20042;-76
2021/10/26 10:40:24;;;;;;;21.27;9.30;;;14.60;99.90;;;;;;5084235;28;20055;-87
2021/10/26 10:42:55;;;;;;;23.15;9.02;;;14.60;99.90;;;;;;5089386;28;20032;-84
2021/10/26 10:45:34;;;;;;;16.40;8.80;;;14.60;99.90;;;;;;5088681;28;20036;-81
2021/10/26 10:48:20;;;;;;;18.10;8.02;;;14.60;99.90;;;;;;5085784;28;20039;-80
2021/10/26 10:51:04;;;;;;;18.33;8.32;;;14.70;99.90;;;;;;5086283;28;20032;-78
2021/10/26 10:53:33;;;;;;;14.65;7.43;;;14.80;99.90;;;;;;5082015;28;20020;-78
2021/10/26 10:56:18;;;;;;;14.30;7.25;;;14.90;99.90;;;;;;5082033;28;20036;-78
2021/10/26 10:58:45;;;;;;;14.13;6.32;;;14.80;99.90;;;;;;5082612;28;20103;-77
2021/10/26 11:01:20;;;;;;;16.58;6.55;;;14.90;99.90;;;;;;5078265;28;20484;-78
2021/10/26 11:03:47;;;;;;;21.17;9.43;;;14.90;99.90;;;;;;5079223;28;20051;-79
2021/10/26 11:06:40;;;;;;;19.35;7.55;;;14.90;99.90;;;;;;5088365;28;20033;-83
2021/10/26 11:09:27;;;;;;;16.38;7.72;;;14.90;99.90;;;;;;5061188;28;20051;-79
2021/10/26 11:12:27;;;;;;;14.57;7.00;;;15.00;99.90;;;;;;5078483;28;20098;-81
2021/10/26 11:14:58;;;;;;;13.80;6.28;;;15.10;99.90;;;;;;5057289;28;20035;-84
2021/10/26 11:17:41;;;;;;;13.32;5.60;;;15.30;99.90;;;;;;5080448;28;20100;-81
2021/10/26 11:20:12;;;;;;;10.20;5.63;;;15.30;99.90;;;;;;5075302;28;20052;-78
2021/10/26 11:22:53;;;;;;;18.73;5.78;;;15.20;99.90;;;;;;5079215;28;20063;-84
2021/10/26 11:25:28;;;;;;;13.75;6.07;;;15.20;99.90;;;;;;5082787;28;20031;-87
2021/10/26 11:27:55;;;;;;;16.65;6.10;;;15.20;99.90;;;;;;5081691;28;20024;-83
2021/10/26 11:30:27;;;;;;;21.17;5.95;;;15.20;99.90;;;;;;5087775;28;20038;-81
2021/10/26 11:33:11;;;;;;;12.38;5.03;;;15.30;99.90;;;;;;5080964;28;20062;-79
2021/10/26 11:36:06;;;;;;;12.13;5.32;;;15.40;99.90;;;;;;5086062;28;20020;-80
2021/10/26 11:38:34;;;;;;;13.93;5.00;;;15.40;99.90;;;;;;5052566;28;20086;-79
2021/10/26 11:41:08;;;;;;;13.98;4.93;;;15.40;99.90;;;;;;5081630;28;20082;-79
2021/10/26 11:43:52;;;;;;;14.15;5.57;;;15.50;99.90;;;;;;5080292;28;20036;-79
2021/10/26 11:46:28;;;;;;;12.23;4.68;;;15.50;99.90;;;;;;5081467;28;20046;-79
2021/10/26 11:49:03;;;;;;;10.90;4.38;;;15.50;99.90;;;;;;5082924;28;20024;-79
2021/10/26 11:51:35;;;;;;;12.57;4.22;;;15.50;99.90;;;;;;5086945;28;20015;-80
2021/10/26 11:54:05;;;;;;;16.05;4.40;;;15.50;99.90;;;;;;5077487;28;20034;-80
2021/10/26 11:56:37;;;;;;;13.10;4.03;;;15.60;99.90;;;;;;5060301;28;20491;-81
2021/10/26 11:59:11;;;;;;;14.10;3.92;;;15.60;99.90;;;;;;5063208;28;20036;-79
2021/10/26 12:01:45;;;;;;;10.60;4.07;;;15.60;99.90;;;;;;5080576;28;20025;-82
2021/10/26 12:04:18;;;;;;;10.50;4.20;;;15.60;99.90;;;;;;5083044;28;20617;-78
2021/10/26 12:06:48;;;;;;;14.85;4.13;;;15.70;99.90;;;;;;5080547;28;20430;-81
2021/10/26 12:09:15;;;;;;;9.80;3.88;;;15.60;99.90;;;;;;5078202;28;20028;-82
2021/10/26 12:11:46;;;;;;;13.18;4.03;;;15.60;99.90;;;;;;5064172;28;20020;-81
2021/10/26 12:14:16;;;;;;;16.83;4.30;;;15.60;99.90;;;;;;5079611;28;20032;-80
2021/10/26 12:17:10;;;;;;;11.70;5.57;;;15.60;99.90;;;;;;5079605;28;20029;-79
2021/10/26 12:19:53;;;;;;;13.73;4.75;;;15.70;99.90;;;;;;5075851;28;20030;-82
2021/10/26 12:22:24;;;;;;;11.75;3.97;;;15.80;99.90;;;;;;5059691;28;20078;-80
2021/10/26 12:25:11;;;;;;;11.77;3.58;;;15.80;99.90;;;;;;5079267;28;20142;-80
2021/10/26 12:27:38;;;;;;;9.63;3.60;;;15.90;99.90;;;;;;5056792;28;20012;-82
2021/10/26 12:30:25;;;;;;;13.45;4.00;;;16.10;99.90;;;;;;5082238;28;20054;-78
2021/10/26 12:32:57;;;;;;;9.63;3.67;;;16.10;99.90;;;;;;5079367;28;20024;-77
2021/10/26 12:35:25;;;;;;;10.95;3.65;;;16.10;99.90;;;;;;5080707;28;20016;-78
2021/10/26 12:38:03;;;;;;;13.93;4.07;;;16.00;99.90;;;;;;5082074;28;20026;-79
2021/10/26 12:40:38;;;;;;;9.27;3.28;;;16.10;99.90;;;;;;5052522;28;20083;-79
2021/10/26 12:43:06;;;;;;;9.88;3.65;;;16.00;99.90;;;;;;5065642;28;20437;-78